Island Escape — C6SK4 — position and weather

sailwx.info

Track history (hours):
 
Tides and Currents Weather Stations Pressure Air Temp Water Temp Dewpoint Dewpoint Depression Visibility Wind Speed Wind Dir Waves Ship Positions

Island Escape

Operator: V Ships Leisure SAM

Last reported at 2015-May-24 01:33 UTC. Time now 2015-May-25 19:43 UTC.
Position N 43°02' E 009°33'.

Length 185 m; draft 7.3 m.

Type: Passenger vessel. MMSI: 311368000.

Date/timePositionNaut miles runAvg speedWind from/ knotsBaromVisibWave heightAir tempDewpointWater temp
2015-May-24 01:33N 43°02' E 009°33'3417.3
2015-May-23 23:33N 42°40' E 010°09'189 7.8
2015-May-22 23:26N 40°49' E 013°35'1517.5
2015-May-22 22:33N 40°38' E 013°49'24 1.4
2015-May-22 05:12N 40°50' E 014°16'5 8.6
2015-May-22 04:34N 40°45' E 014°15'1515.0
2015-May-22 03:34N 40°37' E 013°58'1413.1
2015-May-22 02:29N 40°38' E 013°39'1313.8
2015-May-22 01:33N 40°40' E 013°23'177 6.1
2015-May-20 20:27N 39°20' E 009°55'1715.8
2015-May-20 19:21N 39°05' E 009°46'1314.1
2015-May-20 18:27N 38°58' E 009°32'1516.2
2015-May-20 17:33N 38°53' E 009°14'1716.8
2015-May-20 16:33N 38°48' E 008°54'1616.4
2015-May-20 15:33N 38°46' E 008°33'2316.8
2015-May-20 14:12N 38°46' E 008°04'283 7.1
2015-May-18 22:15N 40°03' E 002°11'249 8.1
2015-May-17 15:33N 43°05' E 005°58'3 2.3
2015-May-17 14:20N 43°07' E 005°56'0 0.0
2015-May-17 13:32N 43°07' E 005°56'0 0.0
2015-May-17 12:32N 43°07' E 005°56'0 0.0
2015-May-17 11:32N 43°07' E 005°56'0 0.0
2015-May-17 10:32N 43°07' E 005°56'0 0.0
2015-May-17 09:32N 43°07' E 005°56'0 0.0
2015-May-17 08:29N 43°07' E 005°56'0 0.0
2015-May-17 07:32N 43°07' E 005°56'0 0.0
2015-May-17 06:32N 43°07' E 005°56'2 1.8
2015-May-17 05:33N 43°05' E 005°55'64 4.9
2015-May-16 16:34N 43°25' E 007°19'1312.6
2015-May-16 15:33N 43°38' E 007°19'4 0.7
2015-May-16 10:11N 43°42' E 007°19'0 0.0
2015-May-16 09:23N 43°42' E 007°19'0 0.0
2015-May-16 06:23N 43°42' E 007°19'0 0.1
2015-May-16 05:29N 43°42' E 007°19'0 0.0
2015-May-16 04:31N 43°42' E 007°19'6 5.9
2015-May-16 03:33N 43°37' E 007°24'5612.8
2015-May-15 23:11N 43°34' E 008°41'914.4
2015-May-15 22:34N 43°34' E 008°54'1414.0
2015-May-15 21:33N 43°33' E 009°13'1413.7
2015-May-15 20:33N 43°32' E 009°32'1414.2
2015-May-15 19:33N 43°31' E 009°51'1515.0
2015-May-15 18:34N 43°31' E 010°12'5 4.2
2015-May-15 17:28N 43°33' E 010°18'0 0.0
2015-May-15 16:28N 43°33' E 010°18'0 0.0
2015-May-15 15:28N 43°33' E 010°18'0 0.0
2015-May-15 14:22N 43°33' E 010°18'0 0.0
2015-May-15 13:28N 43°33' E 010°18'0 0.0
2015-May-15 12:31N 43°33' E 010°18'0 0.0
2015-May-15 11:31N 43°33' E 010°18'0 0.0
2015-May-15 10:31N 43°33' E 010°18'0 0.0
2015-May-15 09:31N 43°33' E 010°18'0 0.0
2015-May-15 08:31N 43°33' E 010°18'0 0.0
2015-May-15 07:31N 43°33' E 010°18'0 0.0
2015-May-15 06:28N 43°33' E 010°18'0 0.0
2015-May-15 05:31N 43°33' E 010°18'0 0.0
2015-May-15 04:33N 43°33' E 010°18'6 6.4
2015-May-15 03:33N 43°28' E 010°12'1413.9
2015-May-15 02:34N 43°16' E 010°03'1110.9
2015-May-15 01:33N 43°07' E 010°12'4 3.6
2015-May-15 00:33N 43°10' E 010°16'2 2.3
2015-May-14 23:33N 43°07' E 010°15'2 1.5
2015-May-14 22:33N 43°06' E 010°16'1 1.3
2015-May-14 21:26N 43°07' E 010°16'1 1.2
2015-May-14 20:33N 43°06' E 010°16'1 0.5
2015-May-14 19:33N 43°07' E 010°16'9 9.2
2015-May-14 18:33N 42°60' E 010°07'1310.5
2015-May-14 17:19N 42°52' E 009°53'13 1.0
2015-May-14 03:33N 42°49' E 009°35'1313.3
2015-May-14 02:33N 43°02' E 009°33'1111.5
2015-May-14 01:33N 43°04' E 009°18'  
Track history (hours):
 
Tides and Currents Weather Stations Pressure Air Temp Water Temp Dewpoint Dewpoint Depression Visibility Wind Speed Wind Dir Waves Ship Positions

Island Escape

Operator: V Ships Leisure SAM

Last reported at 2015-May-24 01:33 UTC. Time now 2015-May-25 19:43 UTC.
Position N 43°02' E 009°33'.

Length 185 m; draft 7.3 m.

Type: Passenger vessel. MMSI: 311368000.

Date/timePositionNaut miles runAvg speedWind from/ knotsBaromVisibWave heightAir tempDewpointWater temp
2015-May-24 01:33N 43°02' E 009°33'3417.3
2015-May-23 23:33N 42°40' E 010°09'189 7.8
2015-May-22 23:26N 40°49' E 013°35'1517.5
2015-May-22 22:33N 40°38' E 013°49'24 1.4
2015-May-22 05:12N 40°50' E 014°16'5 8.6
2015-May-22 04:34N 40°45' E 014°15'1515.0
2015-May-22 03:34N 40°37' E 013°58'1413.1
2015-May-22 02:29N 40°38' E 013°39'1313.8
2015-May-22 01:33N 40°40' E 013°23'177 6.1
2015-May-20 20:27N 39°20' E 009°55'1715.8
2015-May-20 19:21N 39°05' E 009°46'1314.1
2015-May-20 18:27N 38°58' E 009°32'1516.2
2015-May-20 17:33N 38°53' E 009°14'1716.8
2015-May-20 16:33N 38°48' E 008°54'1616.4
2015-May-20 15:33N 38°46' E 008°33'2316.8
2015-May-20 14:12N 38°46' E 008°04'283 7.1
2015-May-18 22:15N 40°03' E 002°11'249 8.1
2015-May-17 15:33N 43°05' E 005°58'3 2.3
2015-May-17 14:20N 43°07' E 005°56'0 0.0
2015-May-17 13:32N 43°07' E 005°56'0 0.0
2015-May-17 12:32N 43°07' E 005°56'0 0.0
2015-May-17 11:32N 43°07' E 005°56'0 0.0
2015-May-17 10:32N 43°07' E 005°56'0 0.0
2015-May-17 09:32N 43°07' E 005°56'0 0.0
2015-May-17 08:29N 43°07' E 005°56'0 0.0
2015-May-17 07:32N 43°07' E 005°56'0 0.0
2015-May-17 06:32N 43°07' E 005°56'2 1.8
2015-May-17 05:33N 43°05' E 005°55'64 4.9
2015-May-16 16:34N 43°25' E 007°19'1312.6
2015-May-16 15:33N 43°38' E 007°19'4 0.7
2015-May-16 10:11N 43°42' E 007°19'0 0.0
2015-May-16 09:23N 43°42' E 007°19'0 0.0
2015-May-16 06:23N 43°42' E 007°19'0 0.1
2015-May-16 05:29N 43°42' E 007°19'0 0.0
2015-May-16 04:31N 43°42' E 007°19'6 5.9
2015-May-16 03:33N 43°37' E 007°24'5612.8
2015-May-15 23:11N 43°34' E 008°41'914.4
2015-May-15 22:34N 43°34' E 008°54'1414.0
2015-May-15 21:33N 43°33' E 009°13'1413.7
2015-May-15 20:33N 43°32' E 009°32'1414.2
2015-May-15 19:33N 43°31' E 009°51'1515.0
2015-May-15 18:34N 43°31' E 010°12'5 4.2
2015-May-15 17:28N 43°33' E 010°18'0 0.0
2015-May-15 16:28N 43°33' E 010°18'0 0.0
2015-May-15 15:28N 43°33' E 010°18'0 0.0
2015-May-15 14:22N 43°33' E 010°18'0 0.0
2015-May-15 13:28N 43°33' E 010°18'0 0.0
2015-May-15 12:31N 43°33' E 010°18'0 0.0
2015-May-15 11:31N 43°33' E 010°18'0 0.0
2015-May-15 10:31N 43°33' E 010°18'0 0.0
2015-May-15 09:31N 43°33' E 010°18'0 0.0
2015-May-15 08:31N 43°33' E 010°18'0 0.0
2015-May-15 07:31N 43°33' E 010°18'0 0.0
2015-May-15 06:28N 43°33' E 010°18'0 0.0
2015-May-15 05:31N 43°33' E 010°18'0 0.0
2015-May-15 04:33N 43°33' E 010°18'6 6.4
2015-May-15 03:33N 43°28' E 010°12'1413.9
2015-May-15 02:34N 43°16' E 010°03'1110.9
2015-May-15 01:33N 43°07' E 010°12'4 3.6
2015-May-15 00:33N 43°10' E 010°16'2 2.3
2015-May-14 23:33N 43°07' E 010°15'2 1.5
2015-May-14 22:33N 43°06' E 010°16'1 1.3
2015-May-14 21:26N 43°07' E 010°16'1 1.2
2015-May-14 20:33N 43°06' E 010°16'1 0.5
2015-May-14 19:33N 43°07' E 010°16'9 9.2
2015-May-14 18:33N 42°60' E 010°07'1310.5
2015-May-14 17:19N 42°52' E 009°53'13 1.0
2015-May-14 03:33N 42°49' E 009°35'1313.3
2015-May-14 02:33N 43°02' E 009°33'1111.5
2015-May-14 01:33N 43°04' E 009°18'  

Dump ship's entire track history